Sparto — P3VW9 — position and weather

sailwx.info

Track history (hours):
 
Tides and Currents Weather Stations Pressure Air Temp Water Temp Dewpoint Dewpoint Depression Visibility Wind Speed Wind Dir Waves Ship Positions

Sparto

Last reported at 2018-May-10 21:46 UTC. Time now 2018-Jun-19 10:43 UTC.
Position N 34°45' W 026°15'.
Warning: this ship's position is 39 days out of date.

Length 249 m; draft 14.3 m.

Type: Ship. MMSI: 209055000.

Date/timePositionNaut miles runAvg speedWind from/ knotsBaromVisibWave heightAir tempDewpointWater temp
2018-May-10 21:46N 34°45' W 026°15'513.6
2018-May-10 21:23N 34°48' W 026°10'613.4
2018-May-10 20:58N 34°51' W 026°04'613.3
2018-May-10 20:30N 34°55' W 025°58'712.9
2018-May-10 19:58N 34°59' W 025°51'612.9
2018-May-10 19:30N 35°03' W 025°46'612.9
2018-May-10 19:00N 35°07' W 025°39'612.9
2018-May-10 18:30N 35°11' W 025°33'613.0
2018-May-10 18:00N 35°14' W 025°27'713.1
2018-May-10 17:29N 35°18' W 025°20'613.2
2018-May-10 17:01N 35°22' W 025°14'713.1
2018-May-10 16:30N 35°26' W 025°07'713.2
2018-May-10 16:00N 35°30' W 025°01'612.9
2018-May-10 15:30N 35°33' W 024°54'612.8
2018-May-10 15:00N 35°37' W 024°48'612.9
2018-May-10 14:30N 35°41' W 024°41'612.9
2018-May-10 14:00N 35°45' W 024°35'612.7
2018-May-10 13:31N 35°49' W 024°29'612.9
2018-May-10 13:00N 35°52' W 024°22'712.9
2018-May-10 12:30N 35°56' W 024°16'612.9
2018-May-10 12:00N 36°00' W 024°10'612.7
2018-May-10 11:30N 36°04' W 024°03'612.4
2018-May-10 11:00N 36°08' W 023°57'612.3
2018-May-10 10:30N 36°11' W 023°51'612.5
2018-May-10 10:00N 36°16' W 023°45'612.4
2018-May-10 09:30N 36°20' W 023°40'1812.7
2018-May-10 08:07N 36°32' W 023°24'1212.6
2018-May-10 07:10N 36°40' W 023°13'312.8
2018-May-10 06:58N 36°42' W 023°11'712.8
2018-May-10 06:23N 36°47' W 023°04'612.8
2018-May-10 05:56N 36°51' W 022°59'812.6
2018-May-10 05:18N 36°57' W 022°52'1212.7
2018-May-10 04:20N 37°05' W 022°41'4512.6
2018-May-10 00:46N 37°36' W 022°00'612.5
2018-May-10 00:19N 37°40' W 021°55'812.5
2018-May-09 23:41N 37°46' W 021°47'6812.4
2018-May-09 18:11N 38°33' W 020°45'  
2018-May-06 20:35N 48°46' W 006°10'412.2
2018-May-06 20:14N 48°49' W 006°05'312.4
2018-May-06 20:00N 48°51' W 006°03'612.1
2018-May-06 19:31N 48°55' W 005°57'612.1
2018-May-06 19:00N 48°60' W 005°50'812.0
2018-May-06 18:19N 49°06' W 005°42'612.1
2018-May-06 17:47N 49°11' W 005°35'512.3
2018-May-06 17:23N 49°14' W 005°30'512.3
2018-May-06 17:01N 49°18' W 005°26'612.6
2018-May-06 16:30N 49°22' W 005°19'611.6
2018-May-06 15:58N 49°27' W 005°13'510.7
2018-May-06 15:27N 49°31' W 005°07'511.1
2018-May-06 15:00N 49°35' W 005°02'612.4
2018-May-06 14:31N 49°37' W 004°53'712.7
2018-May-06 13:59N 49°39' W 004°43'612.8
2018-May-06 13:31N 49°41' W 004°34'612.8
2018-May-06 13:00N 49°43' W 004°24'612.7
2018-May-06 12:30N 49°44' W 004°15'612.5
2018-May-06 12:00N 49°46' W 004°06'612.3
2018-May-06 11:30N 49°48' W 003°57'511.2
2018-May-06 11:01N 49°50' W 003°49'5 9.9
2018-May-06 10:30N 49°51' W 003°41'5 9.7
2018-May-06 10:00N 49°52' W 003°34'5 9.7
2018-May-06 09:30N 49°53' W 003°26'5 9.9
2018-May-06 09:00N 49°54' W 003°19'510.2
2018-May-06 08:31N 49°56' W 003°11'510.5
2018-May-06 08:01N 49°57' W 003°04'611.7
2018-May-06 07:30N 49°59' W 002°55'713.7
2018-May-06 07:00N 50°00' W 002°44'814.2
2018-May-06 06:28N 50°02' W 002°33'714.8
2018-May-06 06:00N 50°04' W 002°23'815.3
2018-May-06 05:30N 50°06' W 002°11'915.5
2018-May-06 04:55N 50°09' W 001°57'615.5
2018-May-06 04:30N 50°11' W 001°48'1014.9
2018-May-06 03:49N 50°13' W 001°33'714.3
2018-May-06 03:21N 50°15' W 001°22'613.7
2018-May-06 02:56N 50°17' W 001°14'1112.8
2018-May-06 02:04N 50°19' W 000°57'112.2
2018-May-06 02:00N 50°19' W 000°56'911.4
2018-May-06 01:13N 50°22' W 000°42'211.0
2018-May-06 01:00N 50°23' W 000°39'610.8
2018-May-06 00:28N 50°25' W 000°30'510.8
2018-May-06 00:01N 50°26' W 000°23'510.9
2018-May-05 23:31N 50°27' W 000°14'611.2
2018-May-05 23:01N 50°29' W 000°06'611.6
2018-May-05 22:30N 50°30' E 000°03'612.1
2018-May-05 22:00N 50°31' E 000°12'612.6
2018-May-05 21:30N 50°33' E 000°22'613.1
2018-May-05 21:01N 50°35' E 000°32'713.6
2018-May-05 20:31N 50°38' E 000°41'713.8
2018-May-05 20:00N 50°42' E 000°50'713.8
2018-May-05 19:31N 50°46' E 000°59'713.5
2018-May-05 19:01N 50°49' E 001°08'713.0
2018-May-05 18:30N 50°54' E 001°17'612.8
2018-May-05 18:00N 50°58' E 001°23'612.1
2018-May-05 17:30N 51°03' E 001°29'611.3
2018-May-05 17:01N 51°07' E 001°35'510.9
2018-May-05 16:31N 51°11' E 001°41'510.9
2018-May-05 16:01N 51°15' E 001°47'611.5
2018-May-05 15:31N 51°20' E 001°51'612.1
2018-May-05 15:01N 51°26' E 001°55'612.5
2018-May-05 14:31N 51°31' E 002°01'713.0
2018-May-05 14:00N 51°35' E 002°09'713.6
2018-May-05 13:30N 51°40' E 002°16'714.0
2018-May-05 13:00N 51°46' E 002°24'714.1
2018-May-05 12:30N 51°51' E 002°31'612.3
2018-May-05 11:59N 51°57' E 002°35'714.0
2018-May-05 11:28N 52°04' E 002°39'714.4
2018-May-05 11:00N 52°10' E 002°41'714.1
2018-May-05 10:28N 52°17' E 002°45'713.8
2018-May-05 10:00N 52°23' E 002°50'713.3
2018-May-05 09:30N 52°29' E 002°55'713.0
2018-May-05 08:57N 52°36' E 003°00'612.6
2018-May-05 08:30N 52°41' E 003°04'712.3
2018-May-05 07:58N 52°47' E 003°09'612.0
2018-May-05 07:27N 52°52' E 003°13'511.8
2018-May-05 06:59N 52°57' E 003°17'611.7
2018-May-05 06:30N 53°03' E 003°19'611.7
2018-May-05 06:00N 53°08' E 003°22'611.9
2018-May-05 05:28N 53°14' E 003°25'612.1
2018-May-05 05:00N 53°20' E 003°28'612.4
2018-May-05 04:30N 53°26' E 003°31'712.8
2018-May-05 03:59N 53°32' E 003°35'713.1
2018-May-05 03:28N 53°39' E 003°38'612.8
2018-May-05 03:00N 53°44' E 003°42'22312.6
2018-May-04 09:21N 56°55' E 007°05'512.6
2018-May-04 08:56N 56°59' E 007°10'512.6
2018-May-04 08:30N 57°04' E 007°15'7112.3
2018-May-04 02:43N 57°42' E 009°05'211.7
2018-May-04 02:30N 57°43' E 009°10'611.9
2018-May-04 02:00N 57°45' E 009°20'611.9
2018-May-04 01:29N 57°47' E 009°31'1112.3
2018-May-04 00:37N 57°47' E 009°51'112.0
2018-May-04 00:30N 57°47' E 009°54'812.3
2018-May-03 23:51N 57°47' E 010°09'512.0
2018-May-03 23:27N 57°48' E 010°18'811.4
2018-May-03 22:46N 57°48' E 010°33'310.5
2018-May-03 22:30N 57°48' E 010°38'5 9.6
2018-May-03 22:00N 57°48' E 010°47'4 7.2
2018-May-03 21:30N 57°45' E 010°49'2 4.4
2018-May-03 21:00N 57°43' E 010°47'2 4.6
2018-May-03 20:30N 57°40' E 010°46'3 5.1
2018-May-03 20:00N 57°38' E 010°46'3 5.1
2018-May-03 19:30N 57°36' E 010°48'2 3.1
2018-May-03 19:00N 57°37' E 010°48'2 3.5
2018-May-03 18:30N 57°39' E 010°48'1 2.8
2018-May-03 18:00N 57°40' E 010°45'2 3.2
2018-May-03 17:30N 57°38' E 010°44'3 5.4
2018-May-03 17:00N 57°37' E 010°49'3 5.9
2018-May-03 16:30N 57°36' E 010°54'3 5.6
2018-May-03 16:00N 57°35' E 010°59'3 5.4
2018-May-03 15:30N 57°34' E 011°04'3 5.9
2018-May-03 15:00N 57°34' E 011°09'4 9.0
2018-May-03 14:30N 57°32' E 011°17'611.8
2018-May-03 14:00N 57°28' E 011°24'611.8
2018-May-03 13:30N 57°22' E 011°29'611.8
2018-May-03 13:00N 57°17' E 011°34'612.1
2018-May-03 12:30N 57°11' E 011°38'612.3
2018-May-03 12:00N 57°05' E 011°42'711.9
2018-May-03 11:28N 56°59' E 011°46'9411.5
2018-May-03 03:15N 55°30' E 010°54'512.7
2018-May-03 02:51N 55°25' E 010°59'511.8
2018-May-03 02:27N 55°21' E 011°02'510.0
2018-May-03 01:59N 55°17' E 011°04'510.4
2018-May-03 01:30N 55°12' E 011°05'611.2
2018-May-03 01:00N 55°07' E 010°59'612.1
2018-May-03 00:31N 55°01' E 010°59'611.9
2018-May-03 00:00N 54°56' E 010°53'713.1
2018-May-02 23:30N 54°50' E 010°50'612.8
2018-May-02 23:00N 54°44' E 010°47'510.9
2018-May-02 22:30N 54°39' E 010°52'612.8
2018-May-02 22:00N 54°36' E 011°02'612.5
2018-May-02 21:30N 54°36' E 011°12'713.0
2018-May-02 21:00N 54°33' E 011°22'613.0
2018-May-02 20:30N 54°30' E 011°32'713.1
2018-May-02 20:00N 54°27' E 011°43'613.0
2018-May-02 19:30N 54°27' E 011°54'612.8
2018-May-02 19:00N 54°27' E 012°05'510.4
2018-May-02 18:30N 54°29' E 012°13'612.0
2018-May-02 18:00N 54°35' E 012°16'4 7.9
2018-May-02 17:29N 54°38' E 012°21'5 9.3
2018-May-02 16:59N 54°40' E 012°28'12 9.2
2018-May-02 15:41N 54°47' E 012°45'11 8.6
2018-May-02 14:26N 54°51' E 013°02'612.3
2018-May-02 13:58N 54°53' E 013°12'612.8
2018-May-02 13:30N 54°55' E 013°22'2012.6
2018-May-02 11:56N 55°02' E 013°54'912.3
2018-May-02 11:12N 55°06' E 014°07'412.5
2018-May-02 10:52N 55°10' E 014°12'512.6
2018-May-02 10:29N 55°14' E 014°17'612.6
2018-May-02 10:00N 55°18' E 014°24'612.7
2018-May-02 09:29N 55°23' E 014°31'612.2
2018-May-02 08:59N 55°27' E 014°40'612.7
2018-May-02 08:30N 55°30' E 014°49'612.6
2018-May-02 08:00N 55°32' E 014°59'612.5
2018-May-02 07:30N 55°35' E 015°09'612.5
2018-May-02 07:00N 55°38' E 015°19'612.4
2018-May-02 06:30N 55°41' E 015°29'612.3
2018-May-02 06:00N 55°42' E 015°40'612.4
2018-May-02 05:30N 55°43' E 015°51'612.2
2018-May-02 05:00N 55°45' E 016°01'612.0
2018-May-02 04:30N 55°46' E 016°11'612.0
2018-May-02 04:00N 55°48' E 016°22'611.8
2018-May-02 03:30N 55°49' E 016°32'611.6
2018-May-02 03:00N 55°51' E 016°42'611.6
2018-May-02 02:30N 55°52' E 016°52'28311.9
2018-May-01 02:36N 59°30' E 022°31'212.0
2018-May-01 02:28N 59°30' E 022°34'612.2
2018-May-01 01:56N 59°32' E 022°47'612.5
2018-May-01 01:26N 59°34' E 022°58'512.5
2018-May-01 01:00N 59°36' E 023°09'612.3
2018-May-01 00:30N 59°37' E 023°20'612.2
2018-May-01 00:00N 59°39' E 023°32'612.3
2018-Apr-30 23:30N 59°41' E 023°44'612.5
2018-Apr-30 23:00N 59°43' E 023°55'712.4
2018-Apr-30 22:27N 59°45' E 024°09'512.3
2018-Apr-30 22:00N 59°46' E 024°19'  
Track history (hours):
 
Tides and Currents Weather Stations Pressure Air Temp Water Temp Dewpoint Dewpoint Depression Visibility Wind Speed Wind Dir Waves Ship Positions

Sparto

Last reported at 2018-May-10 21:46 UTC. Time now 2018-Jun-19 10:43 UTC.
Position N 34°45' W 026°15'.
Warning: this ship's position is 39 days out of date.

Length 249 m; draft 14.3 m.

Type: Ship. MMSI: 209055000.

Date/timePositionNaut miles runAvg speedWind from/ knotsBaromVisibWave heightAir tempDewpointWater temp
2018-May-10 21:46N 34°45' W 026°15'513.6
2018-May-10 21:23N 34°48' W 026°10'613.4
2018-May-10 20:58N 34°51' W 026°04'613.3
2018-May-10 20:30N 34°55' W 025°58'712.9
2018-May-10 19:58N 34°59' W 025°51'612.9
2018-May-10 19:30N 35°03' W 025°46'612.9
2018-May-10 19:00N 35°07' W 025°39'612.9
2018-May-10 18:30N 35°11' W 025°33'613.0
2018-May-10 18:00N 35°14' W 025°27'713.1
2018-May-10 17:29N 35°18' W 025°20'613.2
2018-May-10 17:01N 35°22' W 025°14'713.1
2018-May-10 16:30N 35°26' W 025°07'713.2
2018-May-10 16:00N 35°30' W 025°01'612.9
2018-May-10 15:30N 35°33' W 024°54'612.8
2018-May-10 15:00N 35°37' W 024°48'612.9
2018-May-10 14:30N 35°41' W 024°41'612.9
2018-May-10 14:00N 35°45' W 024°35'612.7
2018-May-10 13:31N 35°49' W 024°29'612.9
2018-May-10 13:00N 35°52' W 024°22'712.9
2018-May-10 12:30N 35°56' W 024°16'612.9
2018-May-10 12:00N 36°00' W 024°10'612.7
2018-May-10 11:30N 36°04' W 024°03'612.4
2018-May-10 11:00N 36°08' W 023°57'612.3
2018-May-10 10:30N 36°11' W 023°51'612.5
2018-May-10 10:00N 36°16' W 023°45'612.4
2018-May-10 09:30N 36°20' W 023°40'1812.7
2018-May-10 08:07N 36°32' W 023°24'1212.6
2018-May-10 07:10N 36°40' W 023°13'312.8
2018-May-10 06:58N 36°42' W 023°11'712.8
2018-May-10 06:23N 36°47' W 023°04'612.8
2018-May-10 05:56N 36°51' W 022°59'812.6
2018-May-10 05:18N 36°57' W 022°52'1212.7
2018-May-10 04:20N 37°05' W 022°41'4512.6
2018-May-10 00:46N 37°36' W 022°00'612.5
2018-May-10 00:19N 37°40' W 021°55'812.5
2018-May-09 23:41N 37°46' W 021°47'6812.4
2018-May-09 18:11N 38°33' W 020°45'  
2018-May-06 20:35N 48°46' W 006°10'412.2
2018-May-06 20:14N 48°49' W 006°05'312.4
2018-May-06 20:00N 48°51' W 006°03'612.1
2018-May-06 19:31N 48°55' W 005°57'612.1
2018-May-06 19:00N 48°60' W 005°50'812.0
2018-May-06 18:19N 49°06' W 005°42'612.1
2018-May-06 17:47N 49°11' W 005°35'512.3
2018-May-06 17:23N 49°14' W 005°30'512.3
2018-May-06 17:01N 49°18' W 005°26'612.6
2018-May-06 16:30N 49°22' W 005°19'611.6
2018-May-06 15:58N 49°27' W 005°13'510.7
2018-May-06 15:27N 49°31' W 005°07'511.1
2018-May-06 15:00N 49°35' W 005°02'612.4
2018-May-06 14:31N 49°37' W 004°53'712.7
2018-May-06 13:59N 49°39' W 004°43'612.8
2018-May-06 13:31N 49°41' W 004°34'612.8
2018-May-06 13:00N 49°43' W 004°24'612.7
2018-May-06 12:30N 49°44' W 004°15'612.5
2018-May-06 12:00N 49°46' W 004°06'612.3
2018-May-06 11:30N 49°48' W 003°57'511.2
2018-May-06 11:01N 49°50' W 003°49'5 9.9
2018-May-06 10:30N 49°51' W 003°41'5 9.7
2018-May-06 10:00N 49°52' W 003°34'5 9.7
2018-May-06 09:30N 49°53' W 003°26'5 9.9
2018-May-06 09:00N 49°54' W 003°19'510.2
2018-May-06 08:31N 49°56' W 003°11'510.5
2018-May-06 08:01N 49°57' W 003°04'611.7
2018-May-06 07:30N 49°59' W 002°55'713.7
2018-May-06 07:00N 50°00' W 002°44'814.2
2018-May-06 06:28N 50°02' W 002°33'714.8
2018-May-06 06:00N 50°04' W 002°23'815.3
2018-May-06 05:30N 50°06' W 002°11'915.5
2018-May-06 04:55N 50°09' W 001°57'615.5
2018-May-06 04:30N 50°11' W 001°48'1014.9
2018-May-06 03:49N 50°13' W 001°33'714.3
2018-May-06 03:21N 50°15' W 001°22'613.7
2018-May-06 02:56N 50°17' W 001°14'1112.8
2018-May-06 02:04N 50°19' W 000°57'112.2
2018-May-06 02:00N 50°19' W 000°56'911.4
2018-May-06 01:13N 50°22' W 000°42'211.0
2018-May-06 01:00N 50°23' W 000°39'610.8
2018-May-06 00:28N 50°25' W 000°30'510.8
2018-May-06 00:01N 50°26' W 000°23'510.9
2018-May-05 23:31N 50°27' W 000°14'611.2
2018-May-05 23:01N 50°29' W 000°06'611.6
2018-May-05 22:30N 50°30' E 000°03'612.1
2018-May-05 22:00N 50°31' E 000°12'612.6
2018-May-05 21:30N 50°33' E 000°22'613.1
2018-May-05 21:01N 50°35' E 000°32'713.6
2018-May-05 20:31N 50°38' E 000°41'713.8
2018-May-05 20:00N 50°42' E 000°50'713.8
2018-May-05 19:31N 50°46' E 000°59'713.5
2018-May-05 19:01N 50°49' E 001°08'713.0
2018-May-05 18:30N 50°54' E 001°17'612.8
2018-May-05 18:00N 50°58' E 001°23'612.1
2018-May-05 17:30N 51°03' E 001°29'611.3
2018-May-05 17:01N 51°07' E 001°35'510.9
2018-May-05 16:31N 51°11' E 001°41'510.9
2018-May-05 16:01N 51°15' E 001°47'611.5
2018-May-05 15:31N 51°20' E 001°51'612.1
2018-May-05 15:01N 51°26' E 001°55'612.5
2018-May-05 14:31N 51°31' E 002°01'713.0
2018-May-05 14:00N 51°35' E 002°09'713.6
2018-May-05 13:30N 51°40' E 002°16'714.0
2018-May-05 13:00N 51°46' E 002°24'714.1
2018-May-05 12:30N 51°51' E 002°31'612.3
2018-May-05 11:59N 51°57' E 002°35'714.0
2018-May-05 11:28N 52°04' E 002°39'714.4
2018-May-05 11:00N 52°10' E 002°41'714.1
2018-May-05 10:28N 52°17' E 002°45'713.8
2018-May-05 10:00N 52°23' E 002°50'713.3
2018-May-05 09:30N 52°29' E 002°55'713.0
2018-May-05 08:57N 52°36' E 003°00'612.6
2018-May-05 08:30N 52°41' E 003°04'712.3
2018-May-05 07:58N 52°47' E 003°09'612.0
2018-May-05 07:27N 52°52' E 003°13'511.8
2018-May-05 06:59N 52°57' E 003°17'611.7
2018-May-05 06:30N 53°03' E 003°19'611.7
2018-May-05 06:00N 53°08' E 003°22'611.9
2018-May-05 05:28N 53°14' E 003°25'612.1
2018-May-05 05:00N 53°20' E 003°28'612.4
2018-May-05 04:30N 53°26' E 003°31'712.8
2018-May-05 03:59N 53°32' E 003°35'713.1
2018-May-05 03:28N 53°39' E 003°38'612.8
2018-May-05 03:00N 53°44' E 003°42'22312.6
2018-May-04 09:21N 56°55' E 007°05'512.6
2018-May-04 08:56N 56°59' E 007°10'512.6
2018-May-04 08:30N 57°04' E 007°15'7112.3
2018-May-04 02:43N 57°42' E 009°05'211.7
2018-May-04 02:30N 57°43' E 009°10'611.9
2018-May-04 02:00N 57°45' E 009°20'611.9
2018-May-04 01:29N 57°47' E 009°31'1112.3
2018-May-04 00:37N 57°47' E 009°51'112.0
2018-May-04 00:30N 57°47' E 009°54'812.3
2018-May-03 23:51N 57°47' E 010°09'512.0
2018-May-03 23:27N 57°48' E 010°18'811.4
2018-May-03 22:46N 57°48' E 010°33'310.5
2018-May-03 22:30N 57°48' E 010°38'5 9.6
2018-May-03 22:00N 57°48' E 010°47'4 7.2
2018-May-03 21:30N 57°45' E 010°49'2 4.4
2018-May-03 21:00N 57°43' E 010°47'2 4.6
2018-May-03 20:30N 57°40' E 010°46'3 5.1
2018-May-03 20:00N 57°38' E 010°46'3 5.1
2018-May-03 19:30N 57°36' E 010°48'2 3.1
2018-May-03 19:00N 57°37' E 010°48'2 3.5
2018-May-03 18:30N 57°39' E 010°48'1 2.8
2018-May-03 18:00N 57°40' E 010°45'2 3.2
2018-May-03 17:30N 57°38' E 010°44'3 5.4
2018-May-03 17:00N 57°37' E 010°49'3 5.9
2018-May-03 16:30N 57°36' E 010°54'3 5.6
2018-May-03 16:00N 57°35' E 010°59'3 5.4
2018-May-03 15:30N 57°34' E 011°04'3 5.9
2018-May-03 15:00N 57°34' E 011°09'4 9.0
2018-May-03 14:30N 57°32' E 011°17'611.8
2018-May-03 14:00N 57°28' E 011°24'611.8
2018-May-03 13:30N 57°22' E 011°29'611.8
2018-May-03 13:00N 57°17' E 011°34'612.1
2018-May-03 12:30N 57°11' E 011°38'612.3
2018-May-03 12:00N 57°05' E 011°42'711.9
2018-May-03 11:28N 56°59' E 011°46'9411.5
2018-May-03 03:15N 55°30' E 010°54'512.7
2018-May-03 02:51N 55°25' E 010°59'511.8
2018-May-03 02:27N 55°21' E 011°02'510.0
2018-May-03 01:59N 55°17' E 011°04'510.4
2018-May-03 01:30N 55°12' E 011°05'611.2
2018-May-03 01:00N 55°07' E 010°59'612.1
2018-May-03 00:31N 55°01' E 010°59'611.9
2018-May-03 00:00N 54°56' E 010°53'713.1
2018-May-02 23:30N 54°50' E 010°50'612.8
2018-May-02 23:00N 54°44' E 010°47'510.9
2018-May-02 22:30N 54°39' E 010°52'612.8
2018-May-02 22:00N 54°36' E 011°02'612.5
2018-May-02 21:30N 54°36' E 011°12'713.0
2018-May-02 21:00N 54°33' E 011°22'613.0
2018-May-02 20:30N 54°30' E 011°32'713.1
2018-May-02 20:00N 54°27' E 011°43'613.0
2018-May-02 19:30N 54°27' E 011°54'612.8
2018-May-02 19:00N 54°27' E 012°05'510.4
2018-May-02 18:30N 54°29' E 012°13'612.0
2018-May-02 18:00N 54°35' E 012°16'4 7.9
2018-May-02 17:29N 54°38' E 012°21'5 9.3
2018-May-02 16:59N 54°40' E 012°28'12 9.2
2018-May-02 15:41N 54°47' E 012°45'11 8.6
2018-May-02 14:26N 54°51' E 013°02'612.3
2018-May-02 13:58N 54°53' E 013°12'612.8
2018-May-02 13:30N 54°55' E 013°22'2012.6
2018-May-02 11:56N 55°02' E 013°54'912.3
2018-May-02 11:12N 55°06' E 014°07'412.5
2018-May-02 10:52N 55°10' E 014°12'512.6
2018-May-02 10:29N 55°14' E 014°17'612.6
2018-May-02 10:00N 55°18' E 014°24'612.7
2018-May-02 09:29N 55°23' E 014°31'612.2
2018-May-02 08:59N 55°27' E 014°40'612.7
2018-May-02 08:30N 55°30' E 014°49'612.6
2018-May-02 08:00N 55°32' E 014°59'612.5
2018-May-02 07:30N 55°35' E 015°09'612.5
2018-May-02 07:00N 55°38' E 015°19'612.4
2018-May-02 06:30N 55°41' E 015°29'612.3
2018-May-02 06:00N 55°42' E 015°40'612.4
2018-May-02 05:30N 55°43' E 015°51'612.2
2018-May-02 05:00N 55°45' E 016°01'612.0
2018-May-02 04:30N 55°46' E 016°11'612.0
2018-May-02 04:00N 55°48' E 016°22'611.8
2018-May-02 03:30N 55°49' E 016°32'611.6
2018-May-02 03:00N 55°51' E 016°42'611.6
2018-May-02 02:30N 55°52' E 016°52'28311.9
2018-May-01 02:36N 59°30' E 022°31'212.0
2018-May-01 02:28N 59°30' E 022°34'612.2
2018-May-01 01:56N 59°32' E 022°47'612.5
2018-May-01 01:26N 59°34' E 022°58'512.5
2018-May-01 01:00N 59°36' E 023°09'612.3
2018-May-01 00:30N 59°37' E 023°20'612.2
2018-May-01 00:00N 59°39' E 023°32'612.3
2018-Apr-30 23:30N 59°41' E 023°44'612.5
2018-Apr-30 23:00N 59°43' E 023°55'712.4
2018-Apr-30 22:27N 59°45' E 024°09'512.3
2018-Apr-30 22:00N 59°46' E 024°19'  

Dump ship's entire track history